createdAt,value
2023-01-29T00:01:32.714Z,102992.25
2023-01-29T00:03:58.966Z,102995.69
2023-01-29T00:06:25.354Z,102999.09
2023-01-29T00:08:51.702Z,102998.16
2023-01-29T00:11:18.224Z,102992.13
2023-01-29T00:13:44.577Z,102971.09
2023-01-29T00:16:10.848Z,102965.75
2023-01-29T00:18:41.323Z,102955.56
2023-01-29T00:21:16.216Z,102966.47
2023-01-29T00:23:43.005Z,102963.88
2023-01-29T00:26:09.855Z,102951.84
2023-01-29T00:28:36.530Z,102945.53
2023-01-29T00:31:09.120Z,102951.44
2023-01-29T00:33:35.821Z,102944.41
2023-01-29T00:36:04.602Z,102939.31
2023-01-29T00:38:33.622Z,102947.72
2023-01-29T00:41:11.467Z,102941.09
2023-01-29T00:43:37.821Z,102951.97
2023-01-29T00:46:04.260Z,102953.72
2023-01-29T00:48:30.862Z,102960.66
2023-01-29T00:50:57.270Z,102943.69
2023-01-29T00:53:23.552Z,102951.03
2023-01-29T00:55:49.859Z,102945.84
2023-01-29T00:58:16.228Z,102937.59
2023-01-29T01:00:42.520Z,102941.50
2023-01-29T01:03:10.263Z,102944.31
2023-01-29T01:05:36.594Z,102951.03
2023-01-29T01:08:02.874Z,102953.63
2023-01-29T01:10:32.491Z,102938.41
2023-01-29T01:13:04.195Z,102942.75
2023-01-29T01:15:35.263Z,102937.25
2023-01-29T01:18:02.906Z,102928.88
2023-01-29T01:20:31.731Z,102934.78
2023-01-29T01:22:58.063Z,102932.19
2023-01-29T01:25:25.243Z,102917.47
2023-01-29T01:27:56.899Z,102923.50
2023-01-29T01:30:23.841Z,102923.50
2023-01-29T01:32:50.760Z,102924.22
2023-01-29T01:35:17.211Z,102926.81
2023-01-29T01:37:43.574Z,102922.66
2023-01-29T01:40:17.639Z,102936.44
2023-01-29T01:42:47.177Z,102935.72
2023-01-29T01:45:25.382Z,102945.03
2023-01-29T01:47:58.902Z,102952.72
2023-01-29T01:50:39.041Z,102956.84
2023-01-29T01:53:15.073Z,102952.72
2023-01-29T01:55:46.060Z,102953.22
2023-01-29T01:58:21.256Z,102941.41
2023-01-29T02:00:47.737Z,102949.91
2023-01-29T02:03:14.290Z,102952.72
2023-01-29T02:05:41.403Z,102951.66
2023-01-29T02:08:08.321Z,102947.41
2023-01-29T02:10:52.977Z,102952.28
2023-01-29T02:13:19.397Z,102946.59
2023-01-29T02:15:46.570Z,102952.28
2023-01-29T02:18:15.027Z,102950.63
2023-01-29T02:20:48.548Z,102947.13
2023-01-29T02:23:17.821Z,102956.53
2023-01-29T02:26:06.572Z,102952.28
2023-01-29T02:28:38.144Z,102954.88
2023-01-29T02:31:29.064Z,102955.72
2023-01-29T02:34:10.893Z,102946.47
2023-01-29T02:36:48.767Z,102964.28
2023-01-29T02:39:36.447Z,102967.84
2023-01-29T02:42:08.965Z,102970.19
2023-01-29T02:44:56.035Z,102970.19
2023-01-29T02:47:33.116Z,102959.25
2023-01-29T02:50:25.299Z,102968.34
2023-01-29T02:53:02.056Z,102967.75
2023-01-29T02:55:41.831Z,102966.59
2023-01-29T02:58:25.630Z,102955.59
2023-01-29T03:00:54.081Z,102955.50
2023-01-29T03:03:32.942Z,102955.50
2023-01-29T03:06:20.718Z,102951.16
2023-01-29T03:08:56.592Z,102954.66
2023-01-29T03:11:23.464Z,102945.16
2023-01-29T03:14:11.477Z,102945.03
2023-01-29T03:16:51.479Z,102929.72
2023-01-29T03:19:30.683Z,102916.03
2023-01-29T03:21:59.828Z,102920.06
2023-01-29T03:24:31.721Z,102909.72
2023-01-29T03:27:01.919Z,102910.63
2023-01-29T03:29:34.914Z,102911.50
2023-01-29T03:32:01.794Z,102906.31
2023-01-29T03:34:31.030Z,102912.31
2023-01-29T03:37:07.267Z,102896.38
2023-01-29T03:39:33.868Z,102898.84
2023-01-29T03:42:16.587Z,102896.97
2023-01-29T03:45:05.314Z,102881.66
2023-01-29T03:48:04.626Z,102884.16
2023-01-29T03:50:52.677Z,102884.25
2023-01-29T03:53:30.492Z,102868.19
2023-01-29T03:56:15.694Z,102871.91
2023-01-29T03:59:02.555Z,102874.78
2023-01-29T04:01:40.214Z,102862.06
2023-01-29T04:04:17.576Z,102866.41
2023-01-29T04:06:47.056Z,102850.38
2023-01-29T04:09:27.718Z,102854.94
2023-01-29T04:12:01.526Z,102851.50
2023-01-29T04:14:28.891Z,102844.56
2023-01-29T04:17:00.089Z,102844.78
2023-01-29T04:19:27.458Z,102853.38
2023-01-29T04:22:03.251Z,102847.69
2023-01-29T04:24:30.044Z,102855.03
2023-01-29T04:27:44.844Z,102863.72
2023-01-29T04:30:47.110Z,102868.19
2023-01-29T04:33:31.731Z,102863.09
2023-01-29T04:36:13.422Z,102861.56
2023-01-29T04:39:01.186Z,102862.38
2023-01-29T04:41:36.227Z,102849.03
2023-01-29T04:44:13.574Z,102842.22
2023-01-29T04:46:48.474Z,102841.16
2023-01-29T04:49:29.535Z,102847.25
2023-01-29T04:52:08.948Z,102846.44
2023-01-29T04:54:54.999Z,102839.63
2023-01-29T04:58:06.419Z,102826.88
2023-01-29T05:00:44.284Z,102840.63
2023-01-29T05:03:13.488Z,102833.00
2023-01-29T05:05:42.734Z,102841.47
2023-01-29T05:08:13.445Z,102845.63
2023-01-29T05:10:40.354Z,102843.13
2023-01-29T05:13:10.968Z,102824.50
2023-01-29T05:15:41.001Z,102833.72
2023-01-29T05:18:08.382Z,102832.88
2023-01-29T05:20:38.606Z,102855.16
2023-01-29T05:23:08.997Z,102831.50
2023-01-29T05:25:35.464Z,102849.97
2023-01-29T05:28:01.784Z,102851.63
2023-01-29T05:30:28.021Z,102856.06
2023-01-29T05:32:54.346Z,102863.13
2023-01-29T05:35:20.608Z,102865.78
2023-01-29T05:37:47.084Z,102862.47
2023-01-29T05:40:13.405Z,102868.59
2023-01-29T05:42:39.778Z,102866.03
2023-01-29T05:45:06.448Z,102857.41
2023-01-29T05:47:32.863Z,102850.78
2023-01-29T05:49:59.186Z,102845.41
2023-01-29T05:52:25.541Z,102819.53
2023-01-29T05:54:51.829Z,102827.47
2023-01-29T05:57:18.187Z,102808.56
2023-01-29T05:59:44.433Z,102832.97
2023-01-29T06:02:11.001Z,102822.84
2023-01-29T06:04:37.408Z,102817.88
2023-01-29T06:07:03.727Z,102824.59
2023-01-29T06:09:30.262Z,102817.88
2023-01-29T06:11:56.666Z,102811.88
2023-01-29T06:14:22.907Z,102809.47
2023-01-29T06:16:49.411Z,102818.91
2023-01-29T06:19:15.747Z,102811.25
2023-01-29T06:21:42.097Z,102803.47
2023-01-29T06:24:08.779Z,102786.09
2023-01-29T06:26:35.160Z,102807.09
2023-01-29T06:29:01.398Z,102799.44
2023-01-29T06:31:38.174Z,102796.03
2023-01-29T06:34:05.364Z,102804.63
2023-01-29T06:36:31.753Z,102796.94
2023-01-29T06:38:58.057Z,102802.03
2023-01-29T06:41:24.477Z,102801.22
2023-01-29T06:43:51.356Z,102803.06
2023-01-29T06:46:17.727Z,102786.94
2023-01-29T06:48:44.067Z,102788.88
2023-01-29T06:51:11.028Z,102789.59
2023-01-29T06:53:38.736Z,102789.50
2023-01-29T06:56:06.289Z,102790.34
2023-01-29T06:58:33.588Z,102793.63
2023-01-29T07:01:04.911Z,102778.34
2023-01-29T07:03:31.437Z,102789.41
2023-01-29T07:05:57.953Z,102774.91
2023-01-29T07:08:24.364Z,102781.03
2023-01-29T07:10:50.672Z,102786.59
2023-01-29T07:13:17.056Z,102788.38
2023-01-29T07:15:43.454Z,102792.59
2023-01-29T07:18:09.911Z,102791.59
2023-01-29T07:20:36.246Z,102804.94
2023-01-29T07:23:02.555Z,102811.44
2023-01-29T07:25:28.928Z,102806.25
2023-01-29T07:27:55.177Z,102803.56
2023-01-29T07:30:22.010Z,102801.00
2023-01-29T07:32:48.383Z,102805.25
2023-01-29T07:35:14.664Z,102798.41
2023-01-29T07:37:41.056Z,102785.38
2023-01-29T07:40:07.615Z,102779.25
2023-01-29T07:42:33.926Z,102771.09
2023-01-29T07:45:00.298Z,102775.94
2023-01-29T07:47:26.554Z,102772.84
2023-01-29T07:49:52.889Z,102775.72
2023-01-29T07:52:21.920Z,102784.22
2023-01-29T07:54:48.576Z,102775.63
2023-01-29T07:57:14.897Z,102758.75
2023-01-29T07:59:41.257Z,102758.56
2023-01-29T08:02:08.916Z,102758.88
2023-01-29T08:04:35.252Z,102750.69
2023-01-29T08:07:01.650Z,102740.34
2023-01-29T08:09:27.882Z,102754.03
2023-01-29T08:11:54.373Z,102752.16
2023-01-29T08:14:20.745Z,102749.34
2023-01-29T08:16:47.031Z,102752.16
2023-01-29T08:19:13.447Z,102755.56
2023-01-29T08:21:39.721Z,102747.50
2023-01-29T08:24:06.369Z,102724.63
2023-01-29T08:26:33.140Z,102735.50
2023-01-29T08:28:59.536Z,102724.44
2023-01-29T08:31:25.853Z,102728.66
2023-01-29T08:33:54.066Z,102711.50
2023-01-29T08:36:20.447Z,102722.97
2023-01-29T08:38:46.693Z,102739.69
2023-01-29T08:41:13.103Z,102732.69
2023-01-29T08:43:39.384Z,102742.41
2023-01-29T08:46:06.614Z,102734.31
2023-01-29T08:48:33.284Z,102726.53
2023-01-29T08:51:01.358Z,102721.88
2023-01-29T08:53:27.872Z,102724.75
2023-01-29T08:55:54.441Z,102718.66
2023-01-29T08:58:20.690Z,102715.63
2023-01-29T09:00:47.128Z,102720.50
2023-01-29T09:03:13.987Z,102710.13
2023-01-29T09:05:41.189Z,102710.75
2023-01-29T09:08:08.988Z,102713.50
2023-01-29T09:10:35.926Z,102701.47
2023-01-29T09:13:02.326Z,102694.81
2023-01-29T09:15:28.800Z,102697.19
2023-01-29T09:17:55.167Z,102705.34
2023-01-29T09:20:21.582Z,102712.09
2023-01-29T09:22:48.108Z,102710.41
2023-01-29T09:25:15.153Z,102715.53
2023-01-29T09:27:44.787Z,102707.88
2023-01-29T09:30:11.763Z,102710.94
2023-01-29T09:32:52.598Z,102720.66
2023-01-29T09:35:19.825Z,102724.88
2023-01-29T09:37:50.202Z,102723.00
2023-01-29T09:40:26.648Z,102720.56
2023-01-29T09:43:00.833Z,102723.16
2023-01-29T09:45:29.208Z,102720.91
2023-01-29T09:48:02.059Z,102717.72
2023-01-29T09:50:39.428Z,102708.50
2023-01-29T09:53:11.486Z,102715.13
2023-01-29T09:55:45.567Z,102716.09
2023-01-29T09:58:19.236Z,102718.13
2023-01-29T10:00:57.585Z,102710.09
2023-01-29T10:03:40.886Z,102710.59
2023-01-29T10:06:12.936Z,102712.84
2023-01-29T10:09:01.129Z,102711.16
2023-01-29T10:11:50.515Z,102702.81
2023-01-29T10:14:22.535Z,102700.59
2023-01-29T10:17:24.035Z,102682.66
2023-01-29T10:20:34.367Z,102686.34
2023-01-29T10:23:16.813Z,102690.25
2023-01-29T10:25:45.584Z,102685.63
2023-01-29T10:28:24.388Z,102668.78
2023-01-29T10:30:56.195Z,102666.06
2023-01-29T10:33:48.992Z,102664.66
2023-01-29T10:36:26.215Z,102680.94
2023-01-29T10:38:52.644Z,102663.25
2023-01-29T10:41:45.217Z,102659.72
2023-01-29T10:44:45.515Z,102652.75
2023-01-29T10:47:22.050Z,102660.44
2023-01-29T10:50:08.895Z,102649.13
2023-01-29T10:52:46.174Z,102646.88
2023-01-29T10:55:44.564Z,102644.97
2023-01-29T10:58:33.995Z,102644.06
2023-01-29T11:01:01.070Z,102641.44
2023-01-29T11:03:30.449Z,102614.09
2023-01-29T11:06:09.111Z,102625.78
2023-01-29T11:08:45.909Z,102612.91
2023-01-29T11:11:18.013Z,102614.44
2023-01-29T11:13:57.179Z,102596.66
2023-01-29T11:16:23.751Z,102584.00
2023-01-29T11:18:58.667Z,102601.25
2023-01-29T11:21:26.751Z,102596.88
2023-01-29T11:24:13.959Z,102591.31
2023-01-29T11:26:42.416Z,102594.88
2023-01-29T11:29:26.945Z,102587.69
2023-01-29T11:31:53.630Z,102593.09
2023-01-29T11:34:24.527Z,102599.09
2023-01-29T11:37:02.863Z,102585.81
2023-01-29T11:39:31.499Z,102593.31
2023-01-29T11:42:01.627Z,102585.91
2023-01-29T11:44:41.441Z,102585.09
2023-01-29T11:47:28.965Z,102581.78
2023-01-29T11:49:57.976Z,102577.44
2023-01-29T11:52:39.181Z,102569.63
2023-01-29T11:55:14.097Z,102563.53
2023-01-29T11:57:48.481Z,102561.84
2023-01-29T12:00:26.099Z,102554.91
2023-01-29T12:02:56.846Z,102547.38
2023-01-29T12:05:25.676Z,102551.50
2023-01-29T12:07:55.889Z,102546.19
2023-01-29T12:10:37.058Z,102526.72
2023-01-29T12:13:09.260Z,102533.56
2023-01-29T12:15:37.283Z,102528.38
2023-01-29T12:18:12.747Z,102526.72
2023-01-29T12:20:52.011Z,102517.06
2023-01-29T12:23:43.069Z,102509.66
2023-01-29T12:26:14.852Z,102518.00
2023-01-29T12:28:59.840Z,102495.97
2023-01-29T12:31:45.032Z,102506.09
2023-01-29T12:34:22.634Z,102494.78
2023-01-29T12:37:00.942Z,102491.72
2023-01-29T12:39:27.435Z,102484.75
2023-01-29T12:42:00.991Z,102478.97
2023-01-29T12:44:51.883Z,102468.84
2023-01-29T12:47:26.607Z,102454.34
2023-01-29T12:50:00.445Z,102460.00
2023-01-29T12:52:42.408Z,102444.56
2023-01-29T12:55:20.960Z,102451.03
2023-01-29T12:57:56.034Z,102435.00
2023-01-29T13:00:26.448Z,102435.84
2023-01-29T13:03:07.709Z,102414.50
2023-01-29T13:05:44.239Z,102424.38
2023-01-29T13:08:35.752Z,102419.31
2023-01-29T13:11:08.123Z,102415.22
2023-01-29T13:13:41.260Z,102412.16
2023-01-29T13:16:13.994Z,102405.06
2023-01-29T13:18:45.850Z,102396.72
2023-01-29T13:21:15.983Z,102382.84
2023-01-29T13:23:48.603Z,102384.09
2023-01-29T13:26:19.047Z,102378.84
2023-01-29T13:28:46.557Z,102368.72
2023-01-29T13:31:34.229Z,102385.31
2023-01-29T13:34:24.790Z,102366.94
2023-01-29T13:36:54.898Z,102376.13
2023-01-29T13:39:34.277Z,102373.66
2023-01-29T13:42:03.744Z,102352.34
2023-01-29T13:44:37.587Z,102356.47
2023-01-29T13:47:07.538Z,102352.34
2023-01-29T13:49:38.962Z,102352.56
2023-01-29T13:52:23.997Z,102348.28
2023-01-29T13:54:55.519Z,102342.63
2023-01-29T13:57:36.857Z,102344.47
2023-01-29T14:00:05.381Z,102319.44
2023-01-29T14:02:32.107Z,102334.00
2023-01-29T14:05:29.551Z,102341.50
2023-01-29T14:08:03.287Z,102338.41
2023-01-29T14:10:31.647Z,102330.28
2023-01-29T14:13:04.077Z,102316.78
2023-01-29T14:15:33.312Z,102325.97
2023-01-29T14:18:08.585Z,102319.00
2023-01-29T14:20:48.750Z,102321.09
2023-01-29T14:23:26.534Z,102299.63
2023-01-29T14:25:53.159Z,102304.00
2023-01-29T14:28:24.192Z,102309.63
2023-01-29T14:30:51.665Z,102308.00
2023-01-29T14:33:42.360Z,102303.88
2023-01-29T14:36:13.169Z,102305.81
2023-01-29T14:38:45.927Z,102311.97
2023-01-29T14:41:24.589Z,102293.97
2023-01-29T14:43:51.037Z,102301.97
2023-01-29T14:46:44.329Z,102303.88
2023-01-29T14:49:10.882Z,102294.69
2023-01-29T14:51:41.688Z,102297.16
2023-01-29T14:54:27.945Z,102278.69
2023-01-29T14:57:04.013Z,102285.84
2023-01-29T14:59:35.839Z,102281.16
2023-01-29T15:02:15.599Z,102268.00
2023-01-29T15:04:49.854Z,102266.34
2023-01-29T15:07:32.145Z,102272.63
2023-01-29T15:10:22.765Z,102280.13
2023-01-29T15:12:56.936Z,102275.34
2023-01-29T15:16:01.244Z,102271.81
2023-01-29T15:18:42.480Z,102253.59
2023-01-29T15:21:17.485Z,102263.69
2023-01-29T15:23:44.718Z,102262.38
2023-01-29T15:26:17.163Z,102261.16
2023-01-29T15:28:47.218Z,102241.44
2023-01-29T15:31:18.398Z,102250.59
2023-01-29T15:33:48.051Z,102245.88
2023-01-29T15:36:21.891Z,102244.22
2023-01-29T15:38:48.518Z,102226.88
2023-01-29T15:41:20.403Z,102211.81
2023-01-29T15:43:57.174Z,102231.00
2023-01-29T15:46:39.939Z,102228.91
2023-01-29T15:49:15.904Z,102232.25
2023-01-29T15:51:42.771Z,102225.31
2023-01-29T15:54:15.924Z,102231.88
2023-01-29T15:56:51.739Z,102231.88
2023-01-29T15:59:22.882Z,102227.50
2023-01-29T16:01:49.301Z,102231.88
2023-01-29T16:04:24.288Z,102200.50
2023-01-29T16:06:52.751Z,102225.81
2023-01-29T16:09:23.213Z,102229.38
2023-01-29T16:11:50.529Z,102205.81
2023-01-29T16:14:20.498Z,102207.25
2023-01-29T16:16:47.350Z,102218.84
2023-01-29T16:19:28.389Z,102205.56
2023-01-29T16:22:01.628Z,102212.16
2023-01-29T16:24:30.620Z,102213.34
2023-01-29T16:27:03.866Z,102216.75
2023-01-29T16:29:32.850Z,102206.66
2023-01-29T16:32:01.036Z,102212.66
2023-01-29T16:34:37.793Z,102217.28
2023-01-29T16:37:26.153Z,102210.47
2023-01-29T16:39:52.848Z,102216.56
2023-01-29T16:42:21.226Z,102209.75
2023-01-29T16:45:27.838Z,102201.66
2023-01-29T16:48:02.337Z,102185.91
2023-01-29T16:50:40.573Z,102193.09
2023-01-29T16:53:18.619Z,102190.97
2023-01-29T16:55:47.755Z,102190.28
2023-01-29T16:58:21.408Z,102182.88
2023-01-29T17:00:53.060Z,102194.06
2023-01-29T17:03:19.990Z,102190.66
2023-01-29T17:05:46.950Z,102196.91
2023-01-29T17:08:30.299Z,102180.91
2023-01-29T17:10:56.905Z,102178.13
2023-01-29T17:13:41.260Z,102182.13
2023-01-29T17:16:27.055Z,102187.53
2023-01-29T17:18:53.633Z,102181.06
2023-01-29T17:21:20.137Z,102182.84
2023-01-29T17:23:46.543Z,102174.00
2023-01-29T17:26:14.284Z,102159.91
2023-01-29T17:28:41.543Z,102173.31
2023-01-29T17:31:08.313Z,102162.63
2023-01-29T17:33:37.349Z,102171.09
2023-01-29T17:36:03.975Z,102165.91
2023-01-29T17:38:30.321Z,102173.47
2023-01-29T17:40:56.579Z,102167.06
2023-01-29T17:43:22.947Z,102164.38
2023-01-29T17:45:49.429Z,102160.50
2023-01-29T17:48:27.177Z,102150.94
2023-01-29T17:50:56.287Z,102135.09
2023-01-29T17:53:24.853Z,102125.25
2023-01-29T17:55:52.811Z,102122.38
2023-01-29T17:58:20.306Z,102131.31
2023-01-29T18:00:48.045Z,102112.72
2023-01-29T18:03:15.373Z,102128.44
2023-01-29T18:05:43.628Z,102115.50
2023-01-29T18:08:17.292Z,102106.22
2023-01-29T18:10:44.587Z,102120.44
2023-01-29T18:13:11.109Z,102121.94
2023-01-29T18:15:37.709Z,102104.63
2023-01-29T18:18:04.891Z,102103.69
2023-01-29T18:20:32.143Z,102097.31
2023-01-29T18:22:58.489Z,102098.69
2023-01-29T18:25:25.758Z,102095.41
2023-01-29T18:27:52.206Z,102100.31
2023-01-29T18:30:18.630Z,102094.31
2023-01-29T18:32:44.901Z,102091.34
2023-01-29T18:35:11.328Z,102086.31
2023-01-29T18:37:37.605Z,102072.00
2023-01-29T18:40:04.320Z,102065.13
2023-01-29T18:42:31.863Z,102069.78
2023-01-29T18:44:58.213Z,102068.16
2023-01-29T18:47:24.545Z,102060.69
2023-01-29T18:49:50.913Z,102045.13
2023-01-29T18:52:17.737Z,102041.47
2023-01-29T18:54:44.149Z,102033.84
2023-01-29T18:57:14.153Z,102037.41
2023-01-29T18:59:56.834Z,102044.75
2023-01-29T19:02:23.436Z,102033.31
2023-01-29T19:04:49.908Z,102031.41
2023-01-29T19:07:16.266Z,102027.84
2023-01-29T19:09:42.979Z,102019.84
2023-01-29T19:12:09.316Z,102005.50
2023-01-29T19:14:35.564Z,101999.22
2023-01-29T19:17:01.956Z,102002.63
2023-01-29T19:19:28.599Z,101987.06
2023-01-29T19:21:55.146Z,101986.25
2023-01-29T19:24:21.723Z,101979.03
2023-01-29T19:26:48.725Z,101977.13
2023-01-29T19:29:15.603Z,101958.56
2023-01-29T19:31:42.398Z,101959.66
2023-01-29T19:34:08.845Z,101979.44
2023-01-29T19:36:36.307Z,101983.41
2023-01-29T19:39:03.129Z,101978.50
2023-01-29T19:41:29.516Z,101976.88
2023-01-29T19:43:55.874Z,101965.00
2023-01-29T19:46:22.178Z,101970.88
2023-01-29T19:48:48.580Z,101955.75
2023-01-29T19:51:15.029Z,101956.25
2023-01-29T19:53:42.432Z,101948.09
2023-01-29T19:56:12.453Z,101943.31
2023-01-29T19:58:39.103Z,101947.56
2023-01-29T20:01:12.322Z,101928.31
2023-01-29T20:03:38.760Z,101934.59
2023-01-29T20:06:06.215Z,101939.47
2023-01-29T20:08:33.429Z,101947.94
2023-01-29T20:10:59.776Z,101953.13
2023-01-29T20:13:26.029Z,101939.66
2023-01-29T20:15:53.222Z,101948.78
2023-01-29T20:18:19.840Z,101945.34
2023-01-29T20:20:48.481Z,101923.00
2023-01-29T20:23:27.999Z,101934.84
2023-01-29T20:26:02.529Z,101911.66
2023-01-29T20:28:28.939Z,101945.91
2023-01-29T20:30:55.427Z,101939.47
2023-01-29T20:33:22.289Z,101926.25
2023-01-29T20:36:00.042Z,101938.94
2023-01-29T20:38:27.100Z,101930.22
2023-01-29T20:40:53.488Z,101925.72
2023-01-29T20:43:19.842Z,101907.56
2023-01-29T20:45:46.270Z,101904.72
2023-01-29T20:48:12.776Z,101920.53
2023-01-29T20:50:39.380Z,101930.22
2023-01-29T20:53:05.682Z,101930.91
2023-01-29T20:55:32.105Z,101923.00
2023-01-29T20:58:06.470Z,101914.13
2023-01-29T21:00:33.432Z,101915.63
2023-01-29T21:02:59.952Z,101898.81
2023-01-29T21:05:26.395Z,101908.13
2023-01-29T21:07:52.749Z,101893.38
2023-01-29T21:10:19.259Z,101900.59
2023-01-29T21:12:45.825Z,101910.31
2023-01-29T21:15:12.159Z,101899.00
2023-01-29T21:17:38.719Z,101908.38
2023-01-29T21:20:05.554Z,101910.97
2023-01-29T21:22:31.884Z,101901.28
2023-01-29T21:24:58.151Z,101894.19
2023-01-29T21:27:25.220Z,101886.03
2023-01-29T21:29:51.606Z,101887.09
2023-01-29T21:32:17.972Z,101892.41
2023-01-29T21:34:44.278Z,101914.41
2023-01-29T21:37:10.672Z,101915.06
2023-01-29T21:39:37.102Z,101908.94
2023-01-29T21:42:03.679Z,101901.41
2023-01-29T21:44:30.646Z,101907.03
2023-01-29T21:46:57.040Z,101909.34
2023-01-29T21:49:23.737Z,101888.75
2023-01-29T21:51:50.232Z,101876.97
2023-01-29T21:54:16.621Z,101876.28
2023-01-29T21:56:42.940Z,101846.13
2023-01-29T21:59:09.697Z,101838.72
2023-01-29T22:01:38.678Z,101828.34
2023-01-29T22:04:05.501Z,101813.22
2023-01-29T22:06:31.848Z,101813.06
2023-01-29T22:08:58.169Z,101795.59
2023-01-29T22:11:24.530Z,101784.66
2023-01-29T22:13:50.780Z,101777.28
2023-01-29T22:16:17.137Z,101758.81
2023-01-29T22:18:43.499Z,101754.63
2023-01-29T22:21:09.777Z,101749.66
2023-01-29T22:23:36.093Z,101756.63
2023-01-29T22:26:03.331Z,101775.63
2023-01-29T22:28:29.696Z,101756.09
2023-01-29T22:31:00.351Z,101740.41
2023-01-29T22:33:26.688Z,101742.81
2023-01-29T22:35:53.929Z,101755.66
2023-01-29T22:38:20.321Z,101745.41
2023-01-29T22:40:51.114Z,101743.66
2023-01-29T22:43:17.690Z,101741.31
2023-01-29T22:45:44.077Z,101705.53
2023-01-29T22:48:10.855Z,101723.81
2023-01-29T22:50:38.474Z,101722.88
2023-01-29T22:53:05.751Z,101693.06
2023-01-29T22:55:32.992Z,101695.50
2023-01-29T22:57:59.820Z,101691.41
2023-01-29T23:00:26.337Z,101692.75
2023-01-29T23:02:52.709Z,101691.50
2023-01-29T23:05:18.954Z,101699.97
2023-01-29T23:07:45.669Z,101719.47
2023-01-29T23:10:15.820Z,101720.59
2023-01-29T23:12:42.415Z,101725.50
2023-01-29T23:15:09.094Z,101708.81
2023-01-29T23:17:35.439Z,101706.22
2023-01-29T23:20:01.736Z,101707.69
2023-01-29T23:22:28.152Z,101709.19
2023-01-29T23:24:54.504Z,101681.50
2023-01-29T23:27:20.801Z,101691.41
2023-01-29T23:29:48.362Z,101692.75
2023-01-29T23:32:20.528Z,101698.75
2023-01-29T23:34:47.357Z,101675.69
2023-01-29T23:37:13.912Z,101665.50
2023-01-29T23:39:40.304Z,101653.19
2023-01-29T23:42:06.588Z,101644.28
2023-01-29T23:44:32.956Z,101630.13
2023-01-29T23:46:59.304Z,101641.09
2023-01-29T23:49:25.695Z,101615.34
2023-01-29T23:51:52.037Z,101627.16
2023-01-29T23:54:18.470Z,101635.53
2023-01-29T23:56:45.180Z,101639.31
2023-01-29T23:59:12.284Z,101639.00
